Time,TemperatureF,DewpointF,PressureIn,WindDirection,WindDirectionDegrees,WindSpeedMPH,WindSpeedGustMPH,Humidity,HourlyPrecipIn,Conditions,Clouds,dailyrainin,SoftwareType,DateUTC
2013-07-30 00:04:00,63.1,63.1,30.06,WNW,295,2.0,2.0,100,0.00,,CLR,0.00,VWS V14.00,2013-07-30 04:04:00,
2013-07-30 00:09:00,62.9,62.9,30.06,WNW,295,0.0,2.0,100,0.00,,CLR,0.00,VWS V14.00,2013-07-30 04:09:00,
2013-07-30 00:14:00,62.6,62.6,30.06,WNW,295,0.0,2.0,100,0.00,,CLR,0.00,VWS V14.00,2013-07-30 04:14:00,
2013-07-30 00:19:00,62.4,62.4,30.06,WNW,295,0.0,2.0,100,0.00,,CLR,0.00,VWS V14.00,2013-07-30 04:19:00,
2013-07-30 00:24:00,62.4,62.4,30.06,WNW,295,1.0,2.0,100,0.00,,CLR,0.00,VWS V14.00,2013-07-30 04:24:00,
2013-07-30 00:29:00,62.3,62.3,30.06,WNW,295,1.0,2.0,100,0.00,,CLR,0.00,VWS V14.00,2013-07-30 04:29:00,
2013-07-30 00:34:00,62.1,62.1,30.07,WNW,295,0.0,2.0,100,0.00,,CLR,0.00,VWS V14.00,2013-07-30 04:34:00,
2013-07-30 00:39:00,62.1,62.1,30.06,WNW,295,0.0,2.0,100,0.00,,CLR,0.00,VWS V14.00,2013-07-30 04:39:00,
2013-07-30 00:44:00,62.1,62.1,30.07,WNW,295,0.0,2.0,100,0.00,,CLR,0.00,VWS V14.00,2013-07-30 04:44:00,
2013-07-30 00:49:00,62.1,62.1,30.06,WNW,295,0.0,2.0,100,0.00,,CLR,0.00,VWS V14.00,2013-07-30 04:49:00,
2013-07-30 00:54:00,62.0,62.0,30.07,WNW,295,0.0,2.0,100,0.00,,CLR,0.00,VWS V14.00,2013-07-30 04:54:00,
2013-07-30 00:59:00,62.0,62.0,30.06,WNW,295,0.0,2.0,100,0.00,,CLR,0.00,VWS V14.00,2013-07-30 04:59:00,
2013-07-30 01:04:00,61.8,61.8,30.07,WNW,295,0.0,1.0,100,0.00,,CLR,0.00,VWS V14.00,2013-07-30 05:04:00,
2013-07-30 01:09:00,61.8,61.8,30.06,WNW,295,0.0,1.0,100,0.00,,CLR,0.00,VWS V14.00,2013-07-30 05:09:00,
2013-07-30 01:14:00,61.8,61.8,30.07,WNW,295,0.0,1.0,100,0.00,,CLR,0.00,VWS V14.00,2013-07-30 05:14:00,
2013-07-30 01:19:00,61.7,61.7,30.06,WNW,295,0.0,1.0,100,0.00,,CLR,0.00,VWS V14.00,2013-07-30 05:19:00,
2013-07-30 01:24:00,61.5,61.5,30.06,WNW,295,0.0,1.0,100,0.01,,CLR,0.01,VWS V14.00,2013-07-30 05:24:00,
2013-07-30 01:29:00,61.5,61.5,30.07,WNW,295,0.0,1.0,100,0.01,,CLR,0.01,VWS V14.00,2013-07-30 05:29:00,
2013-07-30 01:34:00,61.4,61.4,30.06,WNW,295,0.0,1.0,100,0.01,,CLR,0.01,VWS V14.00,2013-07-30 05:34:00,
2013-07-30 01:39:00,61.4,61.4,30.06,WNW,295,0.0,1.0,100,0.01,,CLR,0.01,VWS V14.00,2013-07-30 05:39:00,
2013-07-30 01:44:00,61.2,61.2,30.06,WNW,295,0.0,2.0,100,0.01,,CLR,0.01,VWS V14.00,2013-07-30 05:44:00,
2013-07-30 01:49:00,61.0,61.0,30.06,WNW,295,0.0,2.0,100,0.01,,CLR,0.01,VWS V14.00,2013-07-30 05:49:00,
2013-07-30 01:54:00,61.0,61.0,30.06,WNW,295,0.0,2.0,100,0.01,,CLR,0.01,VWS V14.00,2013-07-30 05:54:00,
2013-07-30 01:59:00,61.0,61.0,30.07,WNW,295,0.0,2.0,100,0.01,,CLR,0.01,VWS V14.00,2013-07-30 05:59:00,
2013-07-30 02:04:00,60.9,60.9,30.06,WNW,295,0.0,1.0,100,0.01,,,0.01,VWS V14.00,2013-07-30 06:04:00,
2013-07-30 02:09:00,60.7,60.7,30.06,WNW,295,0.0,1.0,100,0.00,,,0.01,VWS V14.00,2013-07-30 06:09:00,
2013-07-30 02:14:00,60.6,60.6,30.06,WNW,295,0.0,1.0,100,0.00,,,0.01,VWS V14.00,2013-07-30 06:14:00,
2013-07-30 02:19:00,60.6,60.6,30.07,WNW,295,0.0,1.0,100,0.00,,,0.01,VWS V14.00,2013-07-30 06:19:00,
2013-07-30 02:24:00,60.4,60.4,30.06,WNW,295,0.0,1.0,100,0.00,,,0.01,VWS V14.00,2013-07-30 06:24:00,
2013-07-30 02:29:00,60.4,60.4,30.06,WNW,295,0.0,1.0,100,0.00,,,0.01,VWS V14.00,2013-07-30 06:29:00,
2013-07-30 02:34:00,60.2,60.2,30.06,WNW,295,0.0,2.0,100,0.00,,,0.01,VWS V14.00,2013-07-30 06:34:00,
2013-07-30 02:39:00,60.2,60.2,30.06,WNW,295,0.0,2.0,100,0.00,,,0.01,VWS V14.00,2013-07-30 06:39:00,
2013-07-30 02:44:00,60.1,60.1,30.06,WNW,295,0.0,2.0,100,0.00,,,0.01,VWS V14.00,2013-07-30 06:44:00,
2013-07-30 02:49:00,59.9,59.9,30.06,WNW,295,0.0,2.0,100,0.00,,,0.01,VWS V14.00,2013-07-30 06:49:00,
2013-07-30 02:54:00,59.9,59.9,30.06,WNW,295,0.0,2.0,100,0.00,,,0.01,VWS V14.00,2013-07-30 06:54:00,
2013-07-30 02:59:00,59.6,59.6,30.06,WNW,295,0.0,2.0,100,0.00,,,0.01,VWS V14.00,2013-07-30 06:59:00,
2013-07-30 03:04:00,59.5,59.5,30.06,WNW,295,0.0,2.0,100,0.00,,FEW075,0.01,VWS V14.00,2013-07-30 07:04:00,
2013-07-30 03:09:00,59.3,59.3,30.06,WNW,295,0.0,2.0,100,0.00,,FEW075,0.01,VWS V14.00,2013-07-30 07:09:00,
2013-07-30 03:14:00,59.2,59.2,30.06,WNW,295,0.0,2.0,100,0.00,,FEW075,0.01,VWS V14.00,2013-07-30 07:14:00,
2013-07-30 03:19:00,59.0,59.0,30.06,WNW,295,0.0,2.0,100,0.00,,FEW075,0.01,VWS V14.00,2013-07-30 07:19:00,
2013-07-30 03:24:00,59.0,59.0,30.06,WNW,295,0.0,2.0,100,0.00,,FEW075,0.01,VWS V14.00,2013-07-30 07:24:00,
2013-07-30 03:29:00,58.9,58.9,30.07,WNW,295,0.0,2.0,100,0.00,,FEW075,0.01,VWS V14.00,2013-07-30 07:29:00,
2013-07-30 03:34:00,58.6,58.6,30.06,WNW,295,0.0,0.0,100,0.00,,FEW075,0.01,VWS V14.00,2013-07-30 07:34:00,
2013-07-30 03:39:00,58.6,58.6,30.06,WNW,295,0.0,1.0,100,0.00,,FEW075,0.01,VWS V14.00,2013-07-30 07:39:00,
2013-07-30 03:44:00,58.4,58.4,30.06,WNW,295,0.0,2.0,100,0.00,,FEW075,0.01,VWS V14.00,2013-07-30 07:44:00,
2013-07-30 03:49:00,58.4,58.4,30.07,WNW,295,0.0,2.0,100,0.00,,FEW075,0.01,VWS V14.00,2013-07-30 07:49:00,
2013-07-30 03:54:00,58.2,58.2,30.07,WNW,295,0.0,2.0,100,0.00,,FEW075,0.01,VWS V14.00,2013-07-30 07:54:00,
2013-07-30 03:59:00,58.3,58.3,30.07,WNW,295,0.0,2.0,100,0.00,,FEW075,0.01,VWS V14.00,2013-07-30 07:59:00,
2013-07-30 04:04:00,58.3,58.3,30.07,WNW,295,0.0,1.0,100,0.00,,FEW070,0.01,VWS V14.00,2013-07-30 08:04:00,
2013-07-30 04:09:00,58.1,58.1,30.07,WNW,295,0.0,1.0,100,0.00,,FEW070,0.01,VWS V14.00,2013-07-30 08:09:00,
2013-07-30 04:14:00,58.0,58.0,30.07,WNW,295,0.0,2.0,100,0.00,,FEW070,0.01,VWS V14.00,2013-07-30 08:14:00,
2013-07-30 04:19:00,57.7,57.7,30.07,WNW,295,0.0,2.0,100,0.00,,FEW070,0.01,VWS V14.00,2013-07-30 08:19:00,
2013-07-30 04:24:00,57.5,57.5,30.07,WNW,295,0.0,2.0,100,0.00,,FEW070,0.01,VWS V14.00,2013-07-30 08:24:00,
2013-07-30 04:29:00,57.5,57.5,30.07,WNW,295,0.0,2.0,100,0.00,,FEW070,0.01,VWS V14.00,2013-07-30 08:29:00,
2013-07-30 04:34:00,57.5,57.5,30.07,WNW,295,0.0,2.0,100,0.00,,FEW070,0.01,VWS V14.00,2013-07-30 08:34:00,
2013-07-30 04:39:00,57.5,57.5,30.07,WNW,295,0.0,2.0,100,0.00,,FEW070,0.01,VWS V14.00,2013-07-30 08:39:00,
2013-07-30 04:44:00,57.5,57.5,30.07,WNW,295,0.0,2.0,100,0.00,,FEW070,0.01,VWS V14.00,2013-07-30 08:44:00,
2013-07-30 04:49:00,57.4,57.4,30.08,WNW,295,0.0,2.0,100,0.00,,FEW070,0.01,VWS V14.00,2013-07-30 08:49:00,
2013-07-30 04:54:00,57.3,57.3,30.08,WNW,295,0.0,2.0,100,0.00,,FEW070,0.01,VWS V14.00,2013-07-30 08:54:00,
2013-07-30 04:59:00,57.5,57.5,30.08,WNW,295,0.0,2.0,100,0.00,,FEW070,0.01,VWS V14.00,2013-07-30 08:59:00,
2013-07-30 05:04:00,57.5,57.5,30.08,WNW,295,0.0,2.0,100,0.00,,CLR,0.01,VWS V14.00,2013-07-30 09:04:00,
2013-07-30 05:09:00,57.5,57.5,30.08,WNW,295,0.0,2.0,100,0.00,,CLR,0.01,VWS V14.00,2013-07-30 09:09:00,
2013-07-30 05:14:00,57.3,57.3,30.08,WNW,295,0.0,2.0,100,0.00,,CLR,0.01,VWS V14.00,2013-07-30 09:14:00,
2013-07-30 05:19:00,57.3,57.3,30.08,WNW,295,0.0,2.0,100,0.00,,CLR,0.01,VWS V14.00,2013-07-30 09:19:00,
2013-07-30 05:24:00,57.2,57.2,30.08,WNW,295,0.0,2.0,100,0.00,,CLR,0.01,VWS V14.00,2013-07-30 09:24:00,
2013-07-30 05:29:00,57.2,57.2,30.08,WNW,295,0.0,2.0,100,0.00,,CLR,0.01,VWS V14.00,2013-07-30 09:29:00,
2013-07-30 05:34:00,57.2,57.2,30.08,WNW,295,0.0,2.0,100,0.00,,CLR,0.01,VWS V14.00,2013-07-30 09:34:00,
2013-07-30 05:39:00,57.1,57.1,30.08,WNW,295,0.0,2.0,100,0.00,,CLR,0.01,VWS V14.00,2013-07-30 09:39:00,
2013-07-30 05:44:00,56.9,56.9,30.08,WNW,295,0.0,2.0,100,0.00,,CLR,0.01,VWS V14.00,2013-07-30 09:44:00,
2013-07-30 05:49:00,56.6,56.6,30.08,WNW,295,0.0,2.0,100,0.00,,CLR,0.01,VWS V14.00,2013-07-30 09:49:00,
2013-07-30 05:54:00,56.6,56.6,30.09,WNW,295,0.0,2.0,100,0.00,,CLR,0.01,VWS V14.00,2013-07-30 09:54:00,
2013-07-30 05:59:00,56.6,56.6,30.09,WNW,295,0.0,2.0,100,0.00,,CLR,0.01,VWS V14.00,2013-07-30 09:59:00,
2013-07-30 06:04:00,56.6,56.6,30.09,WNW,295,1.0,2.0,100,0.00,,CLR,0.01,VWS V14.00,2013-07-30 10:04:00,
2013-07-30 06:09:00,56.8,56.8,30.09,WNW,295,0.0,2.0,100,0.00,,CLR,0.01,VWS V14.00,2013-07-30 10:09:00,
2013-07-30 06:14:00,56.7,56.7,30.09,WNW,295,0.0,2.0,100,0.00,,CLR,0.01,VWS V14.00,2013-07-30 10:14:00,
2013-07-30 06:19:00,56.7,56.7,30.09,WNW,295,0.0,2.0,100,0.00,,CLR,0.01,VWS V14.00,2013-07-30 10:19:00,
2013-07-30 06:24:00,56.8,56.8,30.09,WNW,295,0.0,4.0,100,0.00,,CLR,0.01,VWS V14.00,2013-07-30 10:24:00,
2013-07-30 06:29:00,56.9,56.9,30.09,WNW,295,0.0,4.0,100,0.00,,CLR,0.01,VWS V14.00,2013-07-30 10:29:00,
2013-07-30 06:34:00,56.9,56.9,30.09,WNW,292,0.0,3.0,100,0.00,,CLR,0.01,VWS V14.00,2013-07-30 10:34:00,
2013-07-30 06:39:00,57.2,57.2,30.10,WNW,292,0.0,3.0,100,0.00,,CLR,0.01,VWS V14.00,2013-07-30 10:39:00,
2013-07-30 06:44:00,57.2,57.2,30.09,WNW,292,0.0,3.0,100,0.00,,CLR,0.01,VWS V14.00,2013-07-30 10:44:00,
2013-07-30 06:49:00,57.4,57.4,30.10,NW,315,0.0,3.0,100,0.00,,CLR,0.01,VWS V14.00,2013-07-30 10:49:00,
2013-07-30 06:54:00,57.5,57.5,30.09,NW,315,1.0,4.0,100,0.00,,CLR,0.01,VWS V14.00,2013-07-30 10:54:00,
2013-07-30 06:59:00,57.8,57.8,30.10,NW,315,0.0,4.0,100,0.00,,CLR,0.01,VWS V14.00,2013-07-30 10:59:00,
2013-07-30 07:04:00,58.0,58.0,30.10,NW,315,0.0,3.0,100,0.00,,CLR,0.01,VWS V14.00,2013-07-30 11:04:00,
2013-07-30 07:09:00,58.1,58.1,30.10,NW,315,0.0,3.0,100,0.00,,CLR,0.01,VWS V14.00,2013-07-30 11:09:00,
2013-07-30 07:14:00,58.4,58.4,30.10,NW,315,1.0,3.0,100,0.00,,CLR,0.01,VWS V14.00,2013-07-30 11:14:00,
2013-07-30 07:19:00,58.8,58.8,30.09,NW,315,0.0,4.0,100,0.00,,CLR,0.01,VWS V14.00,2013-07-30 11:19:00,
2013-07-30 07:24:00,59.5,59.5,30.10,NW,320,1.0,6.0,100,0.00,,CLR,0.01,VWS V14.00,2013-07-30 11:24:00,
2013-07-30 07:29:00,59.9,59.9,30.10,NW,320,1.0,6.0,100,0.00,,CLR,0.01,VWS V14.00,2013-07-30 11:29:00,
2013-07-30 07:34:00,60.4,60.4,30.10,NW,320,1.0,4.0,100,0.00,,CLR,0.01,VWS V14.00,2013-07-30 11:34:00,
2013-07-30 07:39:00,60.7,60.7,30.09,North,354,1.0,8.0,100,0.00,,CLR,0.01,VWS V14.00,2013-07-30 11:39:00,
2013-07-30 07:44:00,61.2,61.2,30.10,North,354,1.0,8.0,100,0.00,,CLR,0.01,VWS V14.00,2013-07-30 11:44:00,
2013-07-30 07:49:00,61.5,61.5,30.10,North,354,1.0,8.0,100,0.00,,CLR,0.01,VWS V14.00,2013-07-30 11:49:00,
2013-07-30 07:54:00,61.8,61.8,30.10,North,354,1.0,8.0,100,0.00,,CLR,0.01,VWS V14.00,2013-07-30 11:54:00,
2013-07-30 07:59:00,62.1,62.1,30.10,North,354,1.0,8.0,100,0.00,,CLR,0.01,VWS V14.00,2013-07-30 11:59:00,
2013-07-30 08:04:00,62.6,62.6,30.10,North,353,1.0,5.0,100,0.00,,CLR,0.01,VWS V14.00,2013-07-30 12:04:00,
2013-07-30 08:09:00,63.1,63.1,30.10,NNW,347,0.0,6.0,100,0.00,,CLR,0.01,VWS V14.00,2013-07-30 12:09:00,
2013-07-30 08:14:00,63.2,63.2,30.10,NNW,347,0.0,6.0,100,0.00,,CLR,0.01,VWS V14.00,2013-07-30 12:14:00,
2013-07-30 08:19:00,63.9,63.9,30.10,NNW,347,1.0,6.0,100,0.00,,CLR,0.01,VWS V14.00,2013-07-30 12:19:00,
2013-07-30 08:24:00,64.2,63.6,30.10,WNW,297,4.0,8.0,98,0.00,,CLR,0.01,VWS V14.00,2013-07-30 12:24:00,
2013-07-30 08:29:00,64.8,63.6,30.10,NW,321,0.0,8.0,96,0.00,,CLR,0.01,VWS V14.00,2013-07-30 12:29:00,
2013-07-30 08:34:00,65.4,63.9,30.11,NNW,339,1.0,6.0,95,0.00,,CLR,0.01,VWS V14.00,2013-07-30 12:34:00,
2013-07-30 08:39:00,65.8,64.0,30.11,NNW,342,3.0,8.0,94,0.00,,CLR,0.01,VWS V14.00,2013-07-30 12:39:00,
2013-07-30 08:44:00,66.3,63.6,30.10,North,351,1.0,9.0,91,0.00,,CLR,0.01,VWS V14.00,2013-07-30 12:44:00,
2013-07-30 08:49:00,66.8,64.1,30.11,NW,320,4.0,9.0,91,0.00,,CLR,0.01,VWS V14.00,2013-07-30 12:49:00,
2013-07-30 08:54:00,66.9,63.2,30.11,West,270,4.0,9.0,88,0.00,,CLR,0.01,VWS V14.00,2013-07-30 12:54:00,
2013-07-30 08:59:00,67.3,62.3,30.11,North,354,3.0,10.0,84,0.00,,CLR,0.01,VWS V14.00,2013-07-30 12:59:00,
2013-07-30 09:04:00,67.6,62.3,30.11,North,351,1.0,9.0,83,0.00,,CLR,0.01,VWS V14.00,2013-07-30 13:04:00,
2013-07-30 09:09:00,67.9,62.2,30.11,North,0,1.0,11.0,82,0.00,,CLR,0.01,VWS V14.00,2013-07-30 13:09:00,
2013-07-30 09:14:00,68.4,63.0,30.11,NW,308,2.0,11.0,83,0.00,,CLR,0.01,VWS V14.00,2013-07-30 13:14:00,
2013-07-30 09:19:00,69.1,63.7,30.11,NNW,341,2.0,11.0,83,0.00,,CLR,0.01,VWS V14.00,2013-07-30 13:19:00,
2013-07-30 09:24:00,69.5,63.1,30.11,NW,317,0.0,11.0,80,0.00,,CLR,0.01,VWS V14.00,2013-07-30 13:24:00,
2013-07-30 09:29:00,69.8,63.0,30.11,NNW,341,2.0,11.0,79,0.00,,CLR,0.01,VWS V14.00,2013-07-30 13:29:00,
2013-07-30 09:34:00,69.9,62.0,30.11,WNW,301,4.0,7.0,76,0.00,,CLR,0.01,VWS V14.00,2013-07-30 13:34:00,
2013-07-30 09:39:00,70.1,62.6,30.11,NNW,342,5.0,7.0,77,0.00,,CLR,0.01,VWS V14.00,2013-07-30 13:39:00,
2013-07-30 09:44:00,70.2,62.3,30.11,NW,310,1.0,9.0,76,0.00,,CLR,0.01,VWS V14.00,2013-07-30 13:44:00,
2013-07-30 09:49:00,70.8,62.9,30.11,NNW,331,3.0,9.0,76,0.00,,CLR,0.01,VWS V14.00,2013-07-30 13:49:00,
2013-07-30 09:54:00,71.3,62.6,30.11,NNW,339,1.0,9.0,74,0.00,,CLR,0.01,VWS V14.00,2013-07-30 13:54:00,
2013-07-30 09:59:00,71.8,62.7,30.11,NE,37,1.0,9.0,73,0.00,,CLR,0.01,VWS V14.00,2013-07-30 13:59:00,
2013-07-30 10:04:00,72.1,62.2,30.11,North,356,3.0,8.0,71,0.00,,CLR,0.01,VWS V14.00,2013-07-30 14:04:00,
2013-07-30 10:09:00,72.1,62.2,30.11,NNW,347,2.0,8.0,71,0.00,,CLR,0.01,VWS V14.00,2013-07-30 14:09:00,
2013-07-30 10:14:00,72.3,62.4,30.11,NW,326,2.0,8.0,71,0.00,,CLR,0.01,VWS V14.00,2013-07-30 14:14:00,
2013-07-30 10:19:00,72.8,62.9,30.11,NW,325,3.0,8.0,71,0.00,,CLR,0.01,VWS V14.00,2013-07-30 14:19:00,
2013-07-30 10:24:00,73.0,63.0,30.11,WSW,251,3.0,8.0,71,0.00,,CLR,0.01,VWS V14.00,2013-07-30 14:24:00,
2013-07-30 10:29:00,73.1,62.3,30.11,NW,319,3.0,8.0,69,0.00,,CLR,0.01,VWS V14.00,2013-07-30 14:29:00,
2013-07-30 10:34:00,73.5,61.9,30.12,North,349,6.0,7.0,67,0.00,,CLR,0.01,VWS V14.00,2013-07-30 14:34:00,
2013-07-30 10:39:00,73.5,61.9,30.11,NNW,329,3.0,11.0,67,0.00,,CLR,0.01,VWS V14.00,2013-07-30 14:39:00,
2013-07-30 10:44:00,73.8,61.7,30.11,SSE,160,2.0,11.0,66,0.00,,CLR,0.01,VWS V14.00,2013-07-30 14:44:00,
2013-07-30 10:49:00,73.9,61.8,30.11,SSE,152,5.0,11.0,66,0.00,,CLR,0.01,VWS V14.00,2013-07-30 14:49:00,
2013-07-30 10:54:00,74.0,61.9,30.11,NE,50,1.0,11.0,66,0.00,,CLR,0.01,VWS V14.00,2013-07-30 14:54:00,
2013-07-30 10:59:00,74.4,62.3,30.11,NW,314,1.0,11.0,66,0.00,,CLR,0.01,VWS V14.00,2013-07-30 14:59:00,
2013-07-30 11:04:00,74.9,63.6,30.11,WNW,293,4.0,8.0,68,0.00,,CLR,0.01,VWS V14.00,2013-07-30 15:04:00,
2013-07-30 11:09:00,74.9,61.9,30.11,SW,220,1.0,9.0,64,0.00,,CLR,0.01,VWS V14.00,2013-07-30 15:09:00,
2013-07-30 11:14:00,75.4,62.4,30.11,North,357,6.0,9.0,64,0.00,,CLR,0.01,VWS V14.00,2013-07-30 15:14:00,
2013-07-30 11:19:00,75.4,62.4,30.11,WNW,290,2.0,9.0,64,0.00,,CLR,0.01,VWS V14.00,2013-07-30 15:19:00,
2013-07-30 11:24:00,75.4,63.3,30.11,SW,235,0.0,9.0,66,0.00,,CLR,0.01,VWS V14.00,2013-07-30 15:24:00,
2013-07-30 11:29:00,75.8,62.8,30.11,NNW,342,6.0,9.0,64,0.00,,CLR,0.01,VWS V14.00,2013-07-30 15:29:00,
2013-07-30 11:34:00,75.7,61.3,30.11,NW,326,2.0,5.0,61,0.00,,CLR,0.01,VWS V14.00,2013-07-30 15:34:00,
2013-07-30 11:39:00,76.4,62.9,30.10,NNW,338,4.0,7.0,63,0.00,,CLR,0.01,VWS V14.00,2013-07-30 15:39:00,
2013-07-30 11:44:00,76.6,63.5,30.10,NW,326,4.0,7.0,64,0.00,,CLR,0.01,VWS V14.00,2013-07-30 15:44:00,
2013-07-30 11:49:00,76.5,62.1,30.10,West,267,2.0,9.0,61,0.00,,CLR,0.01,VWS V14.00,2013-07-30 15:49:00,
2013-07-30 11:54:00,76.6,62.2,30.10,NNW,328,6.0,9.0,61,0.00,,CLR,0.01,VWS V14.00,2013-07-30 15:54:00,
2013-07-30 11:59:00,76.5,61.6,30.10,NNW,338,3.0,9.0,60,0.00,,CLR,0.01,VWS V14.00,2013-07-30 15:59:00,
2013-07-30 12:04:00,76.4,62.0,30.10,NNW,342,1.0,6.0,61,0.00,,FEW250,0.01,VWS V14.00,2013-07-30 16:04:00,
2013-07-30 12:09:00,76.4,61.5,30.10,WSW,247,5.0,9.0,60,0.00,,FEW250,0.01,VWS V14.00,2013-07-30 16:09:00,
2013-07-30 12:14:00,76.8,61.9,30.10,WNW,297,1.0,9.0,60,0.00,,FEW250,0.01,VWS V14.00,2013-07-30 16:14:00,
2013-07-30 12:19:00,77.3,63.3,30.10,NW,314,1.0,9.0,62,0.00,,FEW250,0.01,VWS V14.00,2013-07-30 16:19:00,
2013-07-30 12:24:00,77.7,63.2,30.10,NW,314,1.0,9.0,61,0.00,,FEW250,0.01,VWS V14.00,2013-07-30 16:24:00,
2013-07-30 12:29:00,77.6,61.7,30.10,WNW,297,3.0,9.0,58,0.00,,FEW250,0.01,VWS V14.00,2013-07-30 16:29:00,
2013-07-30 12:34:00,77.5,61.6,30.09,NW,315,7.0,7.0,58,0.00,,FEW250,0.01,VWS V14.00,2013-07-30 16:34:00,
2013-07-30 12:39:00,77.2,62.2,30.09,NW,326,3.0,8.0,60,0.00,,FEW250,0.01,VWS V14.00,2013-07-30 16:39:00,
2013-07-30 12:44:00,77.5,62.5,30.09,WNW,303,2.0,8.0,60,0.00,,FEW250,0.01,VWS V14.00,2013-07-30 16:44:00,
2013-07-30 12:49:00,78.3,63.3,30.09,NNW,335,2.0,8.0,60,0.00,,FEW250,0.01,VWS V14.00,2013-07-30 16:49:00,
2013-07-30 12:54:00,78.4,63.8,30.09,SSE,163,2.0,8.0,61,0.00,,FEW250,0.01,VWS V14.00,2013-07-30 16:54:00,
2013-07-30 12:59:00,78.4,62.9,30.09,South,173,1.0,8.0,59,0.00,,FEW250,0.01,VWS V14.00,2013-07-30 16:59:00,
2013-07-30 13:04:00,78.8,62.3,30.09,South,180,2.0,5.0,57,0.00,,CLR,0.01,VWS V14.00,2013-07-30 17:04:00,
2013-07-30 13:09:00,79.5,63.4,30.08,WSW,246,3.0,5.0,58,0.00,,CLR,0.01,VWS V14.00,2013-07-30 17:09:00,
2013-07-30 13:14:00,79.7,64.6,30.09,NW,309,3.0,6.0,60,0.00,,CLR,0.01,VWS V14.00,2013-07-30 17:14:00,
2013-07-30 13:19:00,79.7,62.6,30.09,North,354,1.0,9.0,56,0.00,,CLR,0.01,VWS V14.00,2013-07-30 17:19:00,
2013-07-30 13:24:00,79.7,63.1,30.08,North,0,1.0,9.0,57,0.00,,CLR,0.01,VWS V14.00,2013-07-30 17:24:00,
2013-07-30 13:29:00,80.1,63.0,30.08,NNW,345,1.0,9.0,56,0.00,,CLR,0.01,VWS V14.00,2013-07-30 17:29:00,
2013-07-30 13:34:00,79.7,62.6,30.08,WNW,301,1.0,8.0,56,0.00,,CLR,0.01,VWS V14.00,2013-07-30 17:34:00,
2013-07-30 13:39:00,79.3,61.8,30.09,WNW,294,4.0,9.0,55,0.00,,CLR,0.01,VWS V14.00,2013-07-30 17:39:00,
2013-07-30 13:44:00,78.8,61.3,30.08,NE,35,3.0,9.0,55,0.00,,CLR,0.01,VWS V14.00,2013-07-30 17:44:00,
2013-07-30 13:49:00,79.2,61.7,30.09,North,355,2.0,9.0,55,0.00,,CLR,0.01,VWS V14.00,2013-07-30 17:49:00,
2013-07-30 13:54:00,79.3,62.3,30.08,NNE,23,0.0,9.0,56,0.00,,CLR,0.01,VWS V14.00,2013-07-30 17:54:00,
2013-07-30 13:59:00,79.5,61.9,30.09,West,272,3.0,9.0,55,0.00,,CLR,0.01,VWS V14.00,2013-07-30 17:59:00,
2013-07-30 14:04:00,79.7,63.6,30.08,NW,316,1.0,4.0,58,0.00,,SCT250,0.01,VWS V14.00,2013-07-30 18:04:00,
2013-07-30 14:09:00,79.9,61.8,30.08,NW,318,1.0,4.0,54,0.00,,SCT250,0.01,VWS V14.00,2013-07-30 18:09:00,
2013-07-30 14:14:00,80.6,63.0,30.08,North,357,8.0,8.0,55,0.00,,SCT250,0.01,VWS V14.00,2013-07-30 18:14:00,
2013-07-30 14:19:00,80.1,62.5,30.08,North,355,3.0,8.0,55,0.00,,SCT250,0.01,VWS V14.00,2013-07-30 18:19:00,
2013-07-30 14:24:00,80.5,63.9,30.08,North,349,1.0,8.0,57,0.00,,SCT250,0.01,VWS V14.00,2013-07-30 18:24:00,
2013-07-30 14:29:00,80.7,62.0,30.08,NNE,33,10.0,10.0,53,0.00,,SCT250,0.01,VWS V14.00,2013-07-30 18:29:00,
2013-07-30 14:34:00,79.7,61.1,30.08,NNW,341,3.0,7.0,53,0.00,,SCT250,0.01,VWS V14.00,2013-07-30 18:34:00,
2013-07-30 14:39:00,80.1,60.9,30.08,NNW,328,0.0,7.0,52,0.00,,SCT250,0.01,VWS V14.00,2013-07-30 18:39:00,
2013-07-30 14:44:00,79.5,60.3,30.07,NNW,327,8.0,9.0,52,0.00,,SCT250,0.01,VWS V14.00,2013-07-30 18:44:00,
2013-07-30 14:49:00,78.0,59.5,30.08,NNW,341,1.0,9.0,53,0.00,,SCT250,0.01,VWS V14.00,2013-07-30 18:49:00,
2013-07-30 14:54:00,77.9,59.9,30.07,NNW,335,2.0,9.0,54,0.00,,SCT250,0.01,VWS V14.00,2013-07-30 18:54:00,
2013-07-30 14:59:00,78.2,60.2,30.07,North,359,3.0,9.0,54,0.00,,SCT250,0.01,VWS V14.00,2013-07-30 18:59:00,
2013-07-30 15:04:00,79.2,60.6,30.06,NW,319,1.0,9.0,53,0.00,,CLR,0.01,VWS V14.00,2013-07-30 19:04:00,
2013-07-30 15:09:00,79.5,60.9,30.06,NW,317,3.0,10.0,53,0.00,,CLR,0.01,VWS V14.00,2013-07-30 19:09:00,
2013-07-30 15:14:00,79.7,61.1,30.07,NW,313,6.0,10.0,53,0.00,,CLR,0.01,VWS V14.00,2013-07-30 19:14:00,
2013-07-30 15:19:00,79.0,62.0,30.07,WNW,302,1.0,10.0,56,0.00,,CLR,0.01,VWS V14.00,2013-07-30 19:19:00,
2013-07-30 15:24:00,78.0,63.0,30.06,WNW,302,2.0,10.0,60,0.00,,CLR,0.01,VWS V14.00,2013-07-30 19:24:00,
2013-07-30 15:29:00,77.5,63.0,30.06,NW,306,4.0,10.0,61,0.00,,CLR,0.01,VWS V14.00,2013-07-30 19:29:00,
2013-07-30 15:34:00,77.7,61.3,30.06,NNW,345,2.0,6.0,57,0.00,,CLR,0.01,VWS V14.00,2013-07-30 19:34:00,
2013-07-30 15:39:00,78.4,62.4,30.07,WNW,300,1.0,7.0,58,0.00,,CLR,0.01,VWS V14.00,2013-07-30 19:39:00,
2013-07-30 15:44:00,79.1,61.6,30.06,NNW,339,2.0,8.0,55,0.00,,CLR,0.01,VWS V14.00,2013-07-30 19:44:00,
2013-07-30 15:49:00,79.9,62.3,30.06,North,359,3.0,9.0,55,0.00,,CLR,0.01,VWS V14.00,2013-07-30 19:49:00,
2013-07-30 15:54:00,80.3,62.7,30.05,East,96,2.0,9.0,55,0.00,,CLR,0.01,VWS V14.00,2013-07-30 19:54:00,
2013-07-30 15:59:00,80.3,65.2,30.05,NW,306,1.0,9.0,60,0.00,,CLR,0.01,VWS V14.00,2013-07-30 19:59:00,
2013-07-30 16:04:00,79.9,63.3,30.06,NNW,340,1.0,6.0,57,0.00,,BKN070,0.01,VWS V14.00,2013-07-30 20:04:00,
2013-07-30 16:09:00,79.7,62.1,30.05,NNW,339,0.0,7.0,55,0.00,,BKN070,0.01,VWS V14.00,2013-07-30 20:09:00,
2013-07-30 16:14:00,80.1,63.5,30.05,North,350,1.0,7.0,57,0.00,,BKN070,0.01,VWS V14.00,2013-07-30 20:14:00,
2013-07-30 16:19:00,80.1,62.5,30.05,NW,312,4.0,10.0,55,0.00,,BKN070,0.01,VWS V14.00,2013-07-30 20:19:00,
2013-07-30 16:24:00,80.1,63.5,30.05,NNW,347,2.0,10.0,57,0.00,,BKN070,0.01,VWS V14.00,2013-07-30 20:24:00,
2013-07-30 16:29:00,79.9,63.3,30.06,North,0,1.0,10.0,57,0.00,,BKN070,0.01,VWS V14.00,2013-07-30 20:29:00,
2013-07-30 16:34:00,80.5,63.4,30.05,North,0,2.0,3.0,56,0.00,,BKN070,0.01,VWS V14.00,2013-07-30 20:34:00,
2013-07-30 16:39:00,80.5,65.3,30.05,North,0,2.0,3.0,60,0.00,,BKN070,0.01,VWS V14.00,2013-07-30 20:39:00,
2013-07-30 16:44:00,79.7,63.1,30.05,North,352,2.0,5.0,57,0.00,,BKN070,0.01,VWS V14.00,2013-07-30 20:44:00,
2013-07-30 16:49:00,79.0,63.5,30.05,NW,308,4.0,9.0,59,0.00,,BKN070,0.01,VWS V14.00,2013-07-30 20:49:00,
2013-07-30 16:54:00,78.8,63.8,30.06,North,355,0.0,9.0,60,0.00,,BKN070,0.01,VWS V14.00,2013-07-30 20:54:00,
2013-07-30 16:59:00,78.2,62.7,30.06,NNW,329,2.0,9.0,59,0.00,,BKN070,0.01,VWS V14.00,2013-07-30 20:59:00,
2013-07-30 17:04:00,77.9,63.4,30.06,NNW,332,3.0,7.0,61,0.00,,BKN070,0.01,VWS V14.00,2013-07-30 21:04:00,
2013-07-30 17:09:00,77.9,62.9,30.06,NNW,340,2.0,7.0,60,0.00,,BKN070,0.01,VWS V14.00,2013-07-30 21:09:00,
2013-07-30 17:14:00,78.0,63.9,30.06,NNW,327,1.0,7.0,62,0.00,,BKN070,0.01,VWS V14.00,2013-07-30 21:14:00,
2013-07-30 17:19:00,78.0,61.5,30.06,NW,319,4.0,7.0,57,0.00,,BKN070,0.01,VWS V14.00,2013-07-30 21:19:00,
2013-07-30 17:24:00,77.9,62.9,30.06,NW,319,1.0,7.0,60,0.00,,BKN070,0.01,VWS V14.00,2013-07-30 21:24:00,
2013-07-30 17:29:00,78.0,62.0,30.06,NW,312,3.0,7.0,58,0.00,,BKN070,0.01,VWS V14.00,2013-07-30 21:29:00,
2013-07-30 17:34:00,78.0,63.5,30.05,NNW,329,0.0,3.0,61,0.00,,BKN070,0.01,VWS V14.00,2013-07-30 21:34:00,
2013-07-30 17:39:00,78.0,64.8,30.06,NNW,329,3.0,3.0,64,0.00,,BKN070,0.01,VWS V14.00,2013-07-30 21:39:00,
2013-07-30 17:44:00,77.7,64.6,30.06,NNW,329,1.0,4.0,64,0.00,,BKN070,0.01,VWS V14.00,2013-07-30 21:44:00,
2013-07-30 17:49:00,77.3,63.7,30.06,NNW,329,0.0,4.0,63,0.00,,BKN070,0.01,VWS V14.00,2013-07-30 21:49:00,
2013-07-30 17:54:00,77.2,63.2,30.06,NNW,329,0.0,4.0,62,0.00,,BKN070,0.01,VWS V14.00,2013-07-30 21:54:00,
2013-07-30 17:59:00,77.3,63.7,30.06,NW,312,2.0,4.0,63,0.00,,BKN070,0.01,VWS V14.00,2013-07-30 21:59:00,
2013-07-30 18:04:00,77.2,62.2,30.06,North,0,0.0,6.0,60,0.00,,FEW070,0.01,VWS V14.00,2013-07-30 22:04:00,
2013-07-30 18:09:00,77.4,64.3,30.06,North,358,3.0,6.0,64,0.00,,FEW070,0.01,VWS V14.00,2013-07-30 22:09:00,
2013-07-30 18:14:00,77.2,62.7,30.06,NW,316,2.0,6.0,61,0.00,,FEW070,0.01,VWS V14.00,2013-07-30 22:14:00,
2013-07-30 18:19:00,77.2,63.2,30.07,NW,316,3.0,6.0,62,0.00,,FEW070,0.01,VWS V14.00,2013-07-30 22:19:00,
2013-07-30 18:24:00,77.2,64.5,30.07,NW,318,1.0,6.0,65,0.00,,FEW070,0.01,VWS V14.00,2013-07-30 22:24:00,
2013-07-30 18:29:00,77.0,63.9,30.07,NW,318,1.0,6.0,64,0.00,,FEW070,0.01,VWS V14.00,2013-07-30 22:29:00,
2013-07-30 18:34:00,76.4,64.6,30.07,NW,318,2.0,2.0,67,0.00,,FEW070,0.01,VWS V14.00,2013-07-30 22:34:00,
2013-07-30 18:39:00,75.7,63.5,30.07,NW,318,1.0,2.0,66,0.00,,FEW070,0.01,VWS V14.00,2013-07-30 22:39:00,
2013-07-30 18:44:00,75.0,64.6,30.07,NW,318,0.0,2.0,70,0.00,,FEW070,0.01,VWS V14.00,2013-07-30 22:44:00,
2013-07-30 18:49:00,74.2,63.8,30.07,NW,318,2.0,3.0,70,0.00,,FEW070,0.01,VWS V14.00,2013-07-30 22:49:00,
2013-07-30 18:54:00,73.7,64.1,30.08,NW,318,0.0,3.0,72,0.00,,FEW070,0.01,VWS V14.00,2013-07-30 22:54:00,
2013-07-30 18:59:00,73.2,63.6,30.08,NW,318,1.0,3.0,72,0.00,,FEW070,0.01,VWS V14.00,2013-07-30 22:59:00,
2013-07-30 19:04:00,72.8,64.0,30.08,NW,318,0.0,2.0,74,0.00,,SCT075,0.01,VWS V14.00,2013-07-30 23:04:00,
2013-07-30 19:09:00,72.3,63.9,30.08,NW,318,1.0,2.0,75,0.00,,SCT075,0.01,VWS V14.00,2013-07-30 23:09:00,
2013-07-30 19:14:00,72.0,64.4,30.08,NW,318,1.0,2.0,77,0.00,,SCT075,0.01,VWS V14.00,2013-07-30 23:14:00,
2013-07-30 19:19:00,71.4,63.8,30.08,NW,318,1.0,2.0,77,0.00,,SCT075,0.01,VWS V14.00,2013-07-30 23:19:00,
2013-07-30 19:24:00,71.1,63.9,30.09,NW,318,0.0,2.0,78,0.00,,SCT075,0.01,VWS V14.00,2013-07-30 23:24:00,
2013-07-30 19:29:00,70.8,63.6,30.08,NW,318,1.0,2.0,78,0.00,,SCT075,0.01,VWS V14.00,2013-07-30 23:29:00,
2013-07-30 19:34:00,70.4,63.2,30.09,NW,318,2.0,2.0,78,0.00,,SCT075,0.01,VWS V14.00,2013-07-30 23:34:00,
2013-07-30 19:39:00,70.1,63.3,30.09,NW,318,1.0,2.0,79,0.00,,SCT075,0.01,VWS V14.00,2013-07-30 23:39:00,
2013-07-30 19:44:00,69.8,63.0,30.09,NW,318,1.0,2.0,79,0.00,,SCT075,0.01,VWS V14.00,2013-07-30 23:44:00,
2013-07-30 19:49:00,69.4,63.0,30.09,NW,318,0.0,2.0,80,0.00,,SCT075,0.01,VWS V14.00,2013-07-30 23:49:00,
2013-07-30 19:54:00,69.1,62.7,30.09,NW,318,1.0,2.0,80,0.00,,SCT075,0.01,VWS V14.00,2013-07-30 23:54:00,
2013-07-30 19:59:00,68.8,62.4,30.09,NW,318,0.0,2.0,80,0.00,,SCT075,0.01,VWS V14.00,2013-07-30 23:59:00,
2013-07-30 20:04:00,68.4,62.3,30.09,NW,318,1.0,2.0,81,0.00,,BKN085,0.01,VWS V14.00,2013-07-31 00:04:00,
2013-07-30 20:09:00,68.3,61.9,30.10,NW,318,1.0,2.0,80,0.00,,BKN085,0.01,VWS V14.00,2013-07-31 00:09:00,
2013-07-30 20:14:00,68.1,62.1,30.10,NW,318,0.0,3.0,81,0.00,,BKN085,0.01,VWS V14.00,2013-07-31 00:14:00,
2013-07-30 20:19:00,67.8,62.1,30.10,NW,318,0.0,3.0,82,0.00,,BKN085,0.01,VWS V14.00,2013-07-31 00:19:00,
2013-07-30 20:24:00,67.6,61.9,30.10,NW,318,2.0,3.0,82,0.00,,BKN085,0.01,VWS V14.00,2013-07-31 00:24:00,
2013-07-30 20:29:00,67.3,61.6,30.10,NW,318,2.0,3.0,82,0.00,,BKN085,0.01,VWS V14.00,2013-07-31 00:29:00,
2013-07-30 20:34:00,67.1,61.4,30.10,NW,318,0.0,2.0,82,0.00,,BKN085,0.01,VWS V14.00,2013-07-31 00:34:00,
2013-07-30 20:39:00,66.9,61.2,30.10,NW,318,1.0,2.0,82,0.00,,BKN085,0.01,VWS V14.00,2013-07-31 00:39:00,
2013-07-30 20:44:00,66.8,61.1,30.10,NW,318,0.0,2.0,82,0.00,,BKN085,0.01,VWS V14.00,2013-07-31 00:44:00,
2013-07-30 20:49:00,66.6,61.3,30.11,NW,318,2.0,2.0,83,0.00,,BKN085,0.01,VWS V14.00,2013-07-31 00:49:00,
2013-07-30 20:54:00,66.5,61.5,30.11,NW,318,0.0,2.0,84,0.00,,BKN085,0.01,VWS V14.00,2013-07-31 00:54:00,
2013-07-30 20:59:00,66.3,61.7,30.11,NW,318,0.0,2.0,85,0.00,,BKN085,0.01,VWS V14.00,2013-07-31 00:59:00,
2013-07-30 21:04:00,66.3,62.0,30.11,NW,318,1.0,2.0,86,0.00,,BKN085,0.01,VWS V14.00,2013-07-31 01:04:00,
2013-07-30 21:09:00,66.3,62.0,30.11,NW,318,0.0,2.0,86,0.00,,BKN085,0.01,VWS V14.00,2013-07-31 01:09:00,
2013-07-30 21:14:00,66.3,62.0,30.11,NW,318,0.0,2.0,86,0.00,,BKN085,0.01,VWS V14.00,2013-07-31 01:14:00,
2013-07-30 21:19:00,66.3,61.7,30.11,NW,318,1.0,3.0,85,0.00,,BKN085,0.01,VWS V14.00,2013-07-31 01:19:00,
2013-07-30 21:24:00,66.4,61.4,30.11,NW,318,2.0,3.0,84,0.00,,BKN085,0.01,VWS V14.00,2013-07-31 01:24:00,
2013-07-30 21:29:00,66.4,61.8,30.11,NW,318,1.0,3.0,85,0.00,,BKN085,0.01,VWS V14.00,2013-07-31 01:29:00,
2013-07-30 21:33:00,66.4,61.8,30.11,NW,318,0.0,2.0,85,0.00,,BKN085,0.01,VWS V14.00,2013-07-31 01:33:00,
2013-07-30 21:38:00,66.5,62.2,30.11,NW,318,1.0,2.0,86,0.00,,BKN085,0.01,VWS V14.00,2013-07-31 01:38:00,
2013-07-30 21:43:00,66.3,62.0,30.11,NW,318,1.0,2.0,86,0.00,,BKN085,0.01,VWS V14.00,2013-07-31 01:43:00,
2013-07-30 21:49:00,66.1,61.5,30.11,NW,318,1.0,2.0,85,0.00,,BKN085,0.01,VWS V14.00,2013-07-31 01:49:00,
2013-07-30 21:53:00,66.1,61.8,30.11,NW,318,0.0,3.0,86,0.00,,BKN085,0.01,VWS V14.00,2013-07-31 01:53:00,
2013-07-30 21:58:00,66.1,61.8,30.11,NW,318,0.0,3.0,86,0.00,,BKN085,0.01,VWS V14.00,2013-07-31 01:58:00,
2013-07-30 22:03:00,66.0,62.0,30.11,NW,318,0.0,2.0,87,0.00,,OVC085,0.01,VWS V14.00,2013-07-31 02:03:00,
2013-07-30 22:08:00,65.8,61.8,30.11,NW,318,0.0,2.0,87,0.00,,OVC085,0.01,VWS V14.00,2013-07-31 02:08:00,
2013-07-30 22:13:00,65.7,61.1,30.11,NW,318,0.0,2.0,85,0.00,,OVC085,0.01,VWS V14.00,2013-07-31 02:13:00,
2013-07-30 22:18:00,65.6,61.3,30.11,NW,318,0.0,3.0,86,0.00,,OVC085,0.01,VWS V14.00,2013-07-31 02:18:00,
2013-07-30 22:23:00,65.6,61.0,30.11,NW,318,0.0,3.0,85,0.00,,OVC085,0.01,VWS V14.00,2013-07-31 02:23:00,
2013-07-30 22:28:00,65.7,61.1,30.12,NW,318,0.0,3.0,85,0.00,,OVC085,0.01,VWS V14.00,2013-07-31 02:28:00,
2013-07-30 22:33:00,65.7,61.7,30.11,NW,318,0.0,1.0,87,0.00,,OVC085,0.01,VWS V14.00,2013-07-31 02:33:00,
2013-07-30 22:38:00,65.5,61.5,30.12,NW,318,0.0,2.0,87,0.00,,OVC085,0.01,VWS V14.00,2013-07-31 02:38:00,
2013-07-30 22:43:00,65.5,61.5,30.11,NW,318,0.0,2.0,87,0.00,,OVC085,0.01,VWS V14.00,2013-07-31 02:43:00,
2013-07-30 22:48:00,65.3,61.7,30.12,NW,318,0.0,2.0,88,0.00,,OVC085,0.01,VWS V14.00,2013-07-31 02:48:00,
2013-07-30 22:53:00,65.2,61.6,30.12,NW,318,0.0,2.0,88,0.00,,OVC085,0.01,VWS V14.00,2013-07-31 02:53:00,
2013-07-30 22:58:00,65.0,61.4,30.12,NW,318,0.0,2.0,88,0.00,,OVC085,0.01,VWS V14.00,2013-07-31 02:58:00,
2013-07-30 23:03:00,64.9,61.6,30.11,NW,318,0.0,2.0,89,0.00,,CLR,0.01,VWS V14.00,2013-07-31 03:03:00,
2013-07-30 23:08:00,64.7,61.4,30.12,NW,318,0.0,2.0,89,0.00,,CLR,0.01,VWS V14.00,2013-07-31 03:08:00,
2013-07-30 23:13:00,64.5,61.2,30.12,NW,318,0.0,2.0,89,0.00,,CLR,0.01,VWS V14.00,2013-07-31 03:13:00,
2013-07-30 23:18:00,64.4,61.1,30.12,NW,318,0.0,2.0,89,0.00,,CLR,0.01,VWS V14.00,2013-07-31 03:18:00,
2013-07-30 23:23:00,64.4,61.1,30.11,NW,318,1.0,2.0,89,0.00,,CLR,0.01,VWS V14.00,2013-07-31 03:23:00,
2013-07-30 23:28:00,64.4,61.4,30.11,NW,318,0.0,2.0,90,0.00,,CLR,0.01,VWS V14.00,2013-07-31 03:28:00,
2013-07-30 23:33:00,64.4,61.4,30.12,NW,318,0.0,2.0,90,0.00,,CLR,0.01,VWS V14.00,2013-07-31 03:33:00,
2013-07-30 23:38:00,64.2,61.2,30.11,NW,318,0.0,2.0,90,0.00,,CLR,0.01,VWS V14.00,2013-07-31 03:38:00,
2013-07-30 23:43:00,64.1,61.1,30.11,NW,318,0.0,2.0,90,0.00,,CLR,0.01,VWS V14.00,2013-07-31 03:43:00,
2013-07-30 23:48:00,64.1,61.4,30.11,NW,318,0.0,2.0,91,0.00,,CLR,0.01,VWS V14.00,2013-07-31 03:48:00,
2013-07-30 23:53:00,63.7,61.0,30.11,NW,318,2.0,2.0,91,0.00,,CLR,0.01,VWS V14.00,2013-07-31 03:53:00,
2013-07-30 23:58:00,63.7,61.0,30.11,NW,318,1.0,2.0,91,0.00,,CLR,0.01,VWS V14.00,2013-07-31 03:58:00,